Time;durP1;ratioP1;P1;durP2;ratioP2;P2;SDS_P1;SDS_P2;PMS_P1;PMS_P2;Temp;Humidity;BMP_temperature;BMP_pressure;BME280_temperature;BME280_humidity;BME280_pressure;Samples;Min_cycle;Max_cycle;Signal;HPM_P1;HPM_P2
2023/10/02 00:01:17;;;;;;;19.42;13.70;;;17.20;99.90;;;;;;6215740;23;20077;-76
2023/10/02 00:03:45;;;;;;;19.00;15.18;;;17.20;99.90;;;;;;6241402;23;20445;-76
2023/10/02 00:06:16;;;;;;;18.30;13.90;;;17.10;99.90;;;;;;6241323;23;20004;-77
2023/10/02 00:08:42;;;;;;;19.48;13.27;;;17.10;99.90;;;;;;6241681;23;20008;-76
2023/10/02 00:11:39;;;;;;;18.73;13.38;;;17.10;99.90;;;;;;6241710;23;20004;-77
2023/10/02 00:14:20;;;;;;;18.25;11.95;;;17.10;99.90;;;;;;6214819;23;19996;-77
2023/10/02 00:17:03;;;;;;;18.08;12.98;;;17.00;99.90;;;;;;6241263;23;20433;-77
2023/10/02 00:19:44;;;;;;;19.30;11.32;;;17.00;99.90;;;;;;6241589;23;20015;-76
2023/10/02 00:22:35;;;;;;;18.02;11.73;;;17.00;99.90;;;;;;6241723;23;20054;-76
2023/10/02 00:25:16;;;;;;;16.42;11.10;;;17.00;99.90;;;;;;6241311;23;19996;-77
2023/10/02 00:27:43;;;;;;;18.30;12.32;;;16.90;99.90;;;;;;6241061;23;20386;-77
2023/10/02 00:30:13;;;;;;;17.33;12.18;;;16.90;99.90;;;;;;6240657;23;20004;-77
2023/10/02 00:32:41;;;;;;;15.13;10.52;;;16.90;99.90;;;;;;6240963;23;20045;-76
2023/10/02 00:35:10;;;;;;;19.30;11.93;;;16.80;99.90;;;;;;6241466;23;20004;-77
2023/10/02 00:37:58;;;;;;;17.23;10.65;;;16.80;99.90;;;;;;6240955;23;20019;-76
2023/10/02 00:40:28;;;;;;;16.60;11.10;;;16.80;99.90;;;;;;6240192;23;20013;-76
2023/10/02 00:42:59;;;;;;;15.13;10.88;;;16.80;99.90;;;;;;6241070;23;19997;-77
2023/10/02 00:45:38;;;;;;;16.40;11.50;;;16.80;99.90;;;;;;6240459;23;20088;-76
2023/10/02 00:50:50;;;;;;;16.48;11.15;;;16.80;99.90;;;;;;6240729;23;20035;-76
2023/10/02 00:53:24;;;;;;;18.92;12.07;;;16.70;99.90;;;;;;6240323;23;20079;-76
2023/10/02 00:55:51;;;;;;;18.50;12.55;;;16.80;99.90;;;;;;6214312;23;20005;-77
2023/10/02 00:58:19;;;;;;;16.83;12.07;;;16.80;99.90;;;;;;6240152;23;20058;-76
2023/10/02 01:00:50;;;;;;;18.02;12.35;;;16.80;99.90;;;;;;6240755;23;20035;-77
2023/10/02 01:03:16;;;;;;;16.88;11.98;;;16.80;99.90;;;;;;6240608;23;20382;-77
2023/10/02 01:05:54;;;;;;;20.00;12.90;;;16.80;99.90;;;;;;6240597;23;20028;-76
2023/10/02 01:08:23;;;;;;;21.75;14.73;;;16.80;99.90;;;;;;6240834;23;20008;-76
2023/10/02 01:11:00;;;;;;;20.38;13.68;;;16.80;99.90;;;;;;6240883;23;20004;-76
2023/10/02 01:13:29;;;;;;;18.95;12.35;;;16.90;99.90;;;;;;6240418;23;20057;-76
2023/10/02 01:16:07;;;;;;;19.45;13.02;;;16.90;99.90;;;;;;6240565;23;20001;-76
2023/10/02 01:18:33;;;;;;;14.88;10.82;;;17.00;99.90;;;;;;6240974;23;20023;-77
2023/10/02 01:21:00;;;;;;;21.08;12.20;;;17.00;99.90;;;;;;6240518;23;20004;-76
2023/10/02 01:23:33;;;;;;;18.73;12.05;;;17.00;99.90;;;;;;6240343;23;20075;-77
2023/10/02 01:26:01;;;;;;;17.20;12.15;;;17.10;99.90;;;;;;6240599;23;20446;-76
2023/10/02 01:28:32;;;;;;;16.95;11.52;;;17.10;99.90;;;;;;6213129;23;20394;-76
2023/10/02 01:31:31;;;;;;;17.17;11.73;;;17.10;99.90;;;;;;6240596;23;20000;-76
2023/10/02 01:33:45;;;;;;;18.52;12.85;;;17.10;99.90;;;;;;6240552;23;20011;-77
2023/10/02 01:36:11;;;;;;;18.13;12.50;;;17.20;99.90;;;;;;6240575;23;20273;-76
2023/10/02 01:38:37;;;;;;;19.40;13.27;;;17.20;99.90;;;;;;6241093;23;20008;-77
2023/10/02 01:41:06;;;;;;;18.80;13.13;;;17.20;99.90;;;;;;6240479;23;20013;-77
2023/10/02 01:43:43;;;;;;;18.40;12.25;;;17.20;99.90;;;;;;6240466;23;20101;-77
2023/10/02 01:46:10;;;;;;;19.60;13.23;;;17.20;99.90;;;;;;6240818;23;20004;-76
2023/10/02 01:48:37;;;;;;;17.85;12.45;;;17.30;99.90;;;;;;6240919;23;20302;-77
2023/10/02 01:51:15;;;;;;;18.73;12.60;;;17.30;99.90;;;;;;6240308;23;20325;-76
2023/10/02 01:53:46;;;;;;;17.02;10.65;;;17.30;99.90;;;;;;6240434;23;20054;-76
2023/10/02 01:56:12;;;;;;;21.02;12.95;;;17.30;99.90;;;;;;6240320;23;20456;-76
2023/10/02 01:58:39;;;;;;;19.77;11.98;;;17.40;99.90;;;;;;6240794;23;20004;-76
2023/10/02 02:01:06;;;;;;;19.85;11.95;;;17.40;99.90;;;;;;6240535;23;20058;-76
2023/10/02 02:03:33;;;;;;;19.17;13.05;;;17.40;99.90;;;;;;6241865;23;20000;-76
2023/10/02 02:06:08;;;;;;;18.58;12.82;;;17.30;99.90;;;;;;6242632;23;20093;-76
2023/10/02 02:08:38;;;;;;;19.88;13.30;;;17.30;99.90;;;;;;6243058;23;20000;-76
2023/10/02 02:11:16;;;;;;;20.85;12.15;;;17.30;99.90;;;;;;6242815;23;20000;-76
2023/10/02 02:13:52;;;;;;;18.33;11.98;;;17.20;99.90;;;;;;6242575;23;20010;-76
2023/10/02 02:16:22;;;;;;;21.20;14.27;;;17.20;99.90;;;;;;6242896;23;19996;-76
2023/10/02 02:18:50;;;;;;;21.30;13.02;;;17.20;99.90;;;;;;6215581;23;20027;-76
2023/10/02 02:21:18;;;;;;;18.48;12.38;;;17.20;99.90;;;;;;6242476;23;20008;-76
2023/10/02 02:23:45;;;;;;;17.65;11.65;;;17.10;99.90;;;;;;6242413;23;20051;-76
2023/10/02 02:26:21;;;;;;;20.17;12.63;;;17.10;99.90;;;;;;6242146;23;20007;-76
2023/10/02 02:28:51;;;;;;;18.25;12.48;;;17.10;99.90;;;;;;6242239;23;20008;-75
2023/10/02 02:31:30;;;;;;;19.30;12.52;;;17.10;99.90;;;;;;6242596;23;20042;-76
2023/10/02 02:34:04;;;;;;;19.25;11.95;;;17.10;99.90;;;;;;6241163;23;20004;-76
2023/10/02 02:36:34;;;;;;;16.60;11.55;;;17.00;99.90;;;;;;6240004;23;20000;-76
2023/10/02 02:39:22;;;;;;;21.30;12.30;;;17.00;99.90;;;;;;6240065;23;20070;-76
2023/10/02 02:42:18;;;;;;;16.98;12.35;;;16.90;99.90;;;;;;6239686;23;20087;-76
2023/10/02 02:44:46;;;;;;;18.15;12.15;;;16.90;99.90;;;;;;6239738;23;19996;-76
2023/10/02 02:47:16;;;;;;;24.33;13.40;;;16.90;99.90;;;;;;6239836;23;20018;-76
2023/10/02 02:49:51;;;;;;;18.63;13.00;;;16.90;99.90;;;;;;6239242;23;20034;-76
2023/10/02 02:52:37;;;;;;;23.48;12.68;;;16.80;99.90;;;;;;6242248;23;20414;-76
2023/10/02 02:55:12;;;;;;;19.25;12.27;;;16.80;99.90;;;;;;6240701;23;20627;-76
2023/10/02 02:57:45;;;;;;;19.50;12.77;;;16.70;99.90;;;;;;6242279;23;20004;-76
2023/10/02 03:00:29;;;;;;;18.20;11.75;;;16.70;99.90;;;;;;6241050;23;19996;-76
2023/10/02 03:02:56;;;;;;;17.23;12.13;;;16.70;99.90;;;;;;6241997;23;19997;-76
2023/10/02 03:05:37;;;;;;;19.85;12.10;;;16.70;99.90;;;;;;6242053;23;20004;-76
2023/10/02 03:08:05;;;;;;;18.15;12.05;;;16.70;99.90;;;;;;6214971;23;20013;-76
2023/10/02 03:10:46;;;;;;;19.70;13.77;;;16.60;99.90;;;;;;6241774;23;20007;-76
2023/10/02 03:13:17;;;;;;;20.50;11.73;;;16.60;99.90;;;;;;6242405;23;20004;-76
2023/10/02 03:15:47;;;;;;;17.23;12.10;;;16.60;99.90;;;;;;6241436;23;20400;-76
2023/10/02 03:18:23;;;;;;;19.13;13.55;;;16.60;99.90;;;;;;6242166;23;20007;-76
2023/10/02 03:21:05;;;;;;;19.83;13.25;;;16.60;99.90;;;;;;6215295;23;20086;-76
2023/10/02 03:23:30;;;;;;;19.88;11.35;;;16.60;99.90;;;;;;6241766;23;20027;-76
2023/10/02 03:25:56;;;;;;;21.25;12.63;;;16.50;99.90;;;;;;6214794;23;20218;-76
2023/10/02 03:28:31;;;;;;;18.02;11.52;;;16.60;99.90;;;;;;6241735;23;20069;-76
2023/10/02 03:30:58;;;;;;;17.25;11.52;;;16.50;99.90;;;;;;6241733;23;20430;-76
2023/10/02 03:33:25;;;;;;;17.75;11.63;;;16.50;99.90;;;;;;6241636;23;20007;-76
2023/10/02 03:36:07;;;;;;;19.63;12.98;;;16.50;99.90;;;;;;6241708;23;20436;-76
2023/10/02 03:38:43;;;;;;;17.75;12.68;;;16.50;99.90;;;;;;6241175;23;20332;-76
2023/10/02 03:41:13;;;;;;;18.83;12.05;;;16.50;99.90;;;;;;6241514;23;20087;-76
2023/10/02 03:43:46;;;;;;;20.20;12.48;;;16.50;99.90;;;;;;6241956;23;20004;-76
2023/10/02 03:46:16;;;;;;;19.17;12.10;;;16.50;99.90;;;;;;6241955;23;20011;-76
2023/10/02 03:48:50;;;;;;;17.13;11.63;;;16.40;99.90;;;;;;6241635;23;20058;-76
2023/10/02 03:51:35;;;;;;;19.30;12.82;;;16.50;99.90;;;;;;6214870;23;20369;-76
2023/10/02 03:54:17;;;;;;;15.90;11.13;;;16.40;99.90;;;;;;6213869;23;20004;-76
2023/10/02 03:56:47;;;;;;;20.73;12.32;;;16.40;99.90;;;;;;6241951;23;20000;-76
2023/10/02 03:59:26;;;;;;;17.48;10.38;;;16.40;99.90;;;;;;6241772;23;20000;-76
2023/10/02 04:01:53;;;;;;;18.58;12.20;;;16.40;99.90;;;;;;6241603;23;20001;-76
2023/10/02 04:04:21;;;;;;;19.35;12.63;;;16.40;99.90;;;;;;6241565;23;19996;-77
2023/10/02 04:06:47;;;;;;;20.00;12.27;;;16.40;99.90;;;;;;6240842;23;19996;-76
2023/10/02 04:11:43;;;;;;;19.60;12.63;;;16.40;99.90;;;;;;6241982;23;20012;-76
2023/10/02 04:14:18;;;;;;;21.92;13.65;;;16.40;99.90;;;;;;6241627;23;20032;-76
2023/10/02 04:16:46;;;;;;;20.75;12.55;;;16.40;99.90;;;;;;6241587;23;20023;-76
2023/10/02 04:19:15;;;;;;;19.15;12.52;;;16.30;99.90;;;;;;6241601;23;20000;-76
2023/10/02 04:21:42;;;;;;;18.15;11.18;;;16.30;99.90;;;;;;6240800;23;20425;-76
2023/10/02 04:24:09;;;;;;;17.33;12.32;;;16.30;99.90;;;;;;6214832;23;20076;-76
2023/10/02 04:26:36;;;;;;;18.25;12.85;;;16.30;99.90;;;;;;6241413;23;20322;-76
2023/10/02 04:31:44;;;;;;;17.10;12.10;;;16.30;99.90;;;;;;6251087;23;20108;-76
2023/10/02 04:36:48;;;;;;;22.67;12.85;;;16.20;99.90;;;;;;6251237;23;20414;-76
2023/10/02 04:42:57;;;;;;;17.58;11.73;;;16.20;99.90;;;;;;6179080;23;20025;-76
2023/10/02 04:45:25;;;;;;;21.35;13.95;;;16.20;99.90;;;;;;6177865;23;20028;-76
2023/10/02 04:47:55;;;;;;;17.40;11.27;;;16.20;99.90;;;;;;6152793;23;20496;-76
2023/10/02 04:53:17;;;;;;;18.20;12.02;;;16.20;99.90;;;;;;6177823;23;20009;-76
2023/10/02 04:55:43;;;;;;;19.55;13.50;;;16.10;99.90;;;;;;6177836;23;20430;-76
2023/10/02 05:01:18;;;;;;;19.45;12.30;;;16.10;99.90;;;;;;6180472;23;20115;-76
2023/10/02 05:03:26;;;;;;;23.33;13.40;;;16.10;99.90;;;;;;6177709;23;20001;-76
2023/10/02 05:05:54;;;;;;;21.20;12.50;;;16.10;99.90;;;;;;6177058;23;20005;-76
2023/10/02 05:08:29;;;;;;;20.02;13.07;;;16.10;99.90;;;;;;6177081;23;20009;-76
2023/10/02 05:11:03;;;;;;;24.92;13.93;;;16.10;99.90;;;;;;6173217;23;20001;-76
2023/10/02 05:16:13;;;;;;;;;;;16.00;99.90;;;;;;6237449;23;20091;-76
2023/10/02 05:18:44;;;;;;;22.35;13.45;;;16.00;99.90;;;;;;6237481;23;19931;-76
2023/10/02 05:21:11;;;;;;;19.98;12.13;;;16.00;99.90;;;;;;6210851;23;20469;-76
2023/10/02 05:23:36;;;;;;;17.98;11.88;;;16.00;99.90;;;;;;6240364;23;19996;-76
2023/10/02 05:26:02;;;;;;;20.45;13.05;;;16.00;99.90;;;;;;6240252;23;19996;-76
2023/10/02 05:28:44;;;;;;;23.02;13.40;;;16.00;99.90;;;;;;6240747;23;20004;-77
2023/10/02 05:31:15;;;;;;;23.75;13.90;;;16.00;99.90;;;;;;6240576;23;20075;-76
2023/10/02 05:33:41;;;;;;;24.55;14.63;;;16.00;99.90;;;;;;6240213;23;20011;-76
2023/10/02 05:36:08;;;;;;;22.20;13.55;;;16.00;99.90;;;;;;6240381;23;20012;-76
2023/10/02 05:38:34;;;;;;;19.10;12.02;;;15.90;99.90;;;;;;6240568;23;20019;-77
2023/10/02 05:41:03;;;;;;;20.38;12.50;;;16.00;99.90;;;;;;6240254;23;20046;-77
2023/10/02 05:43:47;;;;;;;23.38;14.65;;;16.00;99.90;;;;;;6240993;23;20087;-77
2023/10/02 05:46:16;;;;;;;21.75;11.65;;;16.00;99.90;;;;;;6240257;23;20034;-71
2023/10/02 05:48:43;;;;;;;24.92;13.95;;;16.00;99.90;;;;;;6239938;23;20086;-71
2023/10/02 05:51:09;;;;;;;19.80;12.77;;;16.00;99.90;;;;;;6240277;23;20067;-71
2023/10/02 05:53:37;;;;;;;22.85;13.63;;;16.00;99.90;;;;;;6240966;23;20038;-72
2023/10/02 05:56:12;;;;;;;16.80;12.90;;;16.00;99.90;;;;;;6240171;23;20031;-71
2023/10/02 05:58:43;;;;;;;20.85;12.90;;;16.00;99.90;;;;;;6240808;23;20000;-71
2023/10/02 06:01:25;;;;;;;21.05;13.45;;;16.00;99.90;;;;;;6213379;23;20010;-71
2023/10/02 06:03:56;;;;;;;21.92;13.23;;;16.00;99.90;;;;;;6239963;23;20382;-71
2023/10/02 06:06:23;;;;;;;20.70;13.63;;;16.00;99.90;;;;;;6240836;23;20384;-71
2023/10/02 06:09:00;;;;;;;20.35;12.18;;;16.10;99.90;;;;;;6239882;23;20426;-71
2023/10/02 06:11:26;;;;;;;19.88;12.80;;;16.10;99.90;;;;;;6240621;23;20000;-71
2023/10/02 06:14:09;;;;;;;21.10;12.98;;;16.10;99.90;;;;;;6240367;23;20091;-73
2023/10/02 06:16:40;;;;;;;20.83;13.52;;;16.20;99.90;;;;;;6240774;23;20131;-71
2023/10/02 06:19:15;;;;;;;23.23;13.10;;;16.10;99.90;;;;;;6239865;23;20264;-71
2023/10/02 06:21:46;;;;;;;21.75;13.70;;;16.20;99.90;;;;;;6240523;23;20012;-72
2023/10/02 06:24:19;;;;;;;20.77;14.57;;;16.20;99.90;;;;;;6240686;23;20380;-71
2023/10/02 06:26:58;;;;;;;24.85;13.75;;;16.20;99.90;;;;;;6240087;23;20058;-71
2023/10/02 06:29:35;;;;;;;23.17;13.68;;;16.20;99.90;;;;;;6240534;23;20007;-72
2023/10/02 06:32:11;;;;;;;22.73;14.13;;;16.30;99.90;;;;;;6239486;23;20063;-72
2023/10/02 06:34:38;;;;;;;20.27;12.82;;;16.40;99.90;;;;;;6213633;23;20467;-71
2023/10/02 06:37:16;;;;;;;21.55;14.10;;;16.40;99.90;;;;;;6240294;23;20011;-71
2023/10/02 06:40:02;;;;;;;24.08;13.32;;;16.50;99.90;;;;;;6240572;23;20011;-71
2023/10/02 06:42:28;;;;;;;19.80;13.07;;;16.50;99.90;;;;;;6240799;23;20079;-71
2023/10/02 06:44:54;;;;;;;23.98;14.45;;;16.60;99.90;;;;;;6240428;23;20381;-71
2023/10/02 06:47:24;;;;;;;23.90;13.02;;;16.70;99.90;;;;;;6240002;23;20036;-71
2023/10/02 06:50:02;;;;;;;23.77;14.18;;;16.70;99.90;;;;;;6213627;23;20014;-71
2023/10/02 06:52:32;;;;;;;25.50;13.90;;;16.80;99.90;;;;;;6216008;23;20004;-71
2023/10/02 06:55:00;;;;;;;21.85;13.93;;;16.80;99.90;;;;;;6241558;23;20100;-71
2023/10/02 06:57:26;;;;;;;31.55;14.95;;;16.90;99.90;;;;;;6240211;23;20058;-72
2023/10/02 06:59:52;;;;;;;25.10;13.82;;;16.90;99.90;;;;;;6241731;23;20000;-72
2023/10/02 07:02:27;;;;;;;24.83;14.55;;;17.00;99.90;;;;;;6241412;23;20007;-72
2023/10/02 07:04:55;;;;;;;22.20;14.52;;;17.10;99.90;;;;;;6241858;23;20053;-72
2023/10/02 07:07:29;;;;;;;23.85;14.68;;;17.20;99.90;;;;;;6242036;23;20040;-72
2023/10/02 07:10:08;;;;;;;24.90;14.70;;;17.30;99.90;;;;;;6240960;23;20007;-71
2023/10/02 07:12:39;;;;;;;23.27;13.65;;;17.40;99.90;;;;;;6242666;23;20000;-74
2023/10/02 07:15:13;;;;;;;20.38;12.70;;;17.50;99.90;;;;;;6240125;23;19996;-71
2023/10/02 07:17:48;;;;;;;24.95;14.75;;;17.60;99.90;;;;;;6241802;23;20448;-71
2023/10/02 07:20:20;;;;;;;21.95;14.05;;;17.80;99.90;;;;;;6241766;23;20079;-71
2023/10/02 07:22:47;;;;;;;23.30;14.05;;;17.90;99.90;;;;;;6242060;23;20000;-71
2023/10/02 07:25:20;;;;;;;24.98;15.80;;;18.00;99.90;;;;;;6241865;23;20444;-72
2023/10/02 07:27:46;;;;;;;24.00;15.43;;;18.00;99.90;;;;;;6241652;23;20394;-71
2023/10/02 07:30:24;;;;;;;24.92;13.35;;;18.10;99.90;;;;;;6241126;23;20015;-71
2023/10/02 07:32:53;;;;;;;22.95;14.20;;;18.20;99.90;;;;;;6241368;23;20005;-72
2023/10/02 07:35:21;;;;;;;24.42;14.82;;;18.30;99.90;;;;;;6241468;23;20068;-71
2023/10/02 07:38:00;;;;;;;25.20;14.00;;;18.40;99.90;;;;;;6241345;23;20007;-71
2023/10/02 07:40:48;;;;;;;22.83;14.65;;;18.40;99.90;;;;;;6241141;23;20440;-72
2023/10/02 07:43:21;;;;;;;22.58;15.57;;;18.60;99.90;;;;;;6241694;23;20123;-72
2023/10/02 07:46:01;;;;;;;23.92;15.15;;;18.60;99.90;;;;;;6213737;23;20011;-71
2023/10/02 07:48:30;;;;;;;23.55;14.85;;;18.70;99.90;;;;;;6241226;23;20007;-72
2023/10/02 07:50:59;;;;;;;23.00;15.15;;;18.80;99.90;;;;;;6240691;23;20004;-72
2023/10/02 07:53:38;;;;;;;23.83;14.68;;;18.90;99.90;;;;;;6241668;23;20392;-71
2023/10/02 07:56:06;;;;;;;23.88;14.00;;;18.90;99.90;;;;;;6240064;23;20001;-71
2023/10/02 07:58:35;;;;;;;24.83;15.88;;;19.00;99.90;;;;;;6241222;23;20038;-72
2023/10/02 08:01:06;;;;;;;23.15;15.70;;;19.10;99.90;;;;;;6212593;23;20035;-72
2023/10/02 08:03:34;;;;;;;25.92;13.88;;;19.20;99.90;;;;;;6241588;23;20000;-72
2023/10/02 08:06:20;;;;;;;24.00;13.85;;;19.40;99.90;;;;;;6240687;23;20418;-72
2023/10/02 08:08:46;;;;;;;23.92;14.13;;;19.50;99.90;;;;;;6240887;23;20004;-72
2023/10/02 08:11:12;;;;;;;21.63;13.90;;;19.60;99.90;;;;;;6240723;23;20050;-72
2023/10/02 08:13:39;;;;;;;20.90;14.38;;;19.60;99.90;;;;;;6240289;23;20406;-72
2023/10/02 08:16:16;;;;;;;20.85;13.32;;;19.70;99.90;;;;;;6240686;23;20023;-72
2023/10/02 08:19:10;;;;;;;22.88;14.65;;;19.80;99.90;;;;;;6240747;23;20723;-72
2023/10/02 08:21:36;;;;;;;22.33;14.52;;;19.80;99.90;;;;;;6241555;23;20080;-73
2023/10/02 08:24:06;;;;;;;22.27;13.40;;;19.90;99.90;;;;;;6240047;23;20008;-76
2023/10/02 08:26:43;;;;;;;22.08;14.10;;;19.90;99.90;;;;;;6240803;23;20310;-72
2023/10/02 08:29:18;;;;;;;24.08;13.95;;;20.00;99.90;;;;;;6240166;23;20027;-72
2023/10/02 08:31:47;;;;;;;24.25;14.65;;;20.00;99.90;;;;;;6240721;23;20023;-71
2023/10/02 08:34:19;;;;;;;23.35;13.63;;;20.10;99.90;;;;;;6241013;23;20050;-71
2023/10/02 08:37:04;;;;;;;22.85;14.43;;;20.20;99.90;;;;;;6240571;23;19996;-71
2023/10/02 08:39:32;;;;;;;22.63;13.63;;;20.30;99.90;;;;;;6240701;23;20386;-71
2023/10/02 08:42:08;;;;;;;22.88;14.15;;;20.40;99.90;;;;;;6239952;23;20054;-71
2023/10/02 08:44:38;;;;;;;22.20;14.77;;;20.40;99.90;;;;;;6240941;23;20050;-71
2023/10/02 08:47:06;;;;;;;23.10;15.23;;;20.50;99.90;;;;;;6240074;23;20039;-71
2023/10/02 08:49:34;;;;;;;22.73;13.88;;;20.50;99.90;;;;;;6240530;23;20027;-71
2023/10/02 08:52:03;;;;;;;23.25;14.82;;;20.50;99.90;;;;;;6240296;23;20026;-71
2023/10/02 08:54:31;;;;;;;23.45;14.18;;;20.60;99.90;;;;;;6240282;23;20030;-71
2023/10/02 08:57:08;;;;;;;23.63;15.20;;;20.70;99.90;;;;;;6239432;23;20000;-71
2023/10/02 08:59:41;;;;;;;22.70;15.10;;;20.80;99.90;;;;;;6240643;23;20329;-71
2023/10/02 09:02:14;;;;;;;23.88;13.75;;;20.90;99.90;;;;;;6240182;23;20305;-71
2023/10/02 09:05:09;;;;;;;24.45;15.05;;;20.90;99.90;;;;;;6240043;23;20449;-72
2023/10/02 09:10:24;;;;;;;23.65;15.63;;;21.00;99.90;;;;;;6240276;23;20051;-72
2023/10/02 09:13:24;;;;;;;24.45;15.80;;;21.00;99.90;;;;;;6239406;23;20011;-71
2023/10/02 09:15:53;;;;;;;24.67;14.48;;;21.10;99.90;;;;;;6240194;23;20353;-71
2023/10/02 09:19:07;;;;;;;23.67;13.75;;;21.10;99.90;;;;;;6240615;23;20477;-71
2023/10/02 09:21:22;;;;;;;25.83;14.73;;;21.10;99.90;;;;;;6239560;23;20054;-71
2023/10/02 09:23:52;;;;;;;24.15;14.98;;;21.20;99.90;;;;;;6240238;23;19992;-71
2023/10/02 09:26:23;;;;;;;28.67;16.20;;;21.20;99.90;;;;;;6239795;23;20429;-71
2023/10/02 09:29:05;;;;;;;25.38;15.05;;;21.30;99.90;;;;;;6239877;23;20034;-72
2023/10/02 09:31:34;;;;;;;22.98;14.73;;;21.30;99.90;;;;;;6213310;23;20043;-72
2023/10/02 09:34:16;;;;;;;25.48;14.95;;;21.30;99.90;;;;;;6212890;23;20011;-72
2023/10/02 09:36:52;;;;;;;24.45;14.52;;;21.30;99.90;;;;;;6212106;23;20047;-72
2023/10/02 09:39:36;;;;;;;23.13;14.60;;;21.40;99.90;;;;;;6239575;23;20075;-72
2023/10/02 09:42:09;;;;;;;;;;;21.40;99.90;;;;;;6239328;23;20085;-72
2023/10/02 09:44:47;;;;;;;23.83;16.10;;;21.40;99.90;;;;;;6240668;23;19969;-72
2023/10/02 09:47:14;;;;;;;24.77;15.52;;;21.50;99.90;;;;;;6239276;23;20004;-72
2023/10/02 09:50:10;;;;;;;26.33;14.27;;;21.50;99.90;;;;;;6240057;23;20089;-72
2023/10/02 09:52:47;;;;;;;26.02;15.93;;;21.60;99.90;;;;;;6239833;23;20449;-72
2023/10/02 09:55:23;;;;;;;23.48;14.30;;;21.60;99.90;;;;;;6239383;23;20004;-72
2023/10/02 09:57:53;;;;;;;25.05;14.23;;;21.70;99.90;;;;;;6239439;23;20377;-72
2023/10/02 10:00:34;;;;;;;23.05;14.15;;;21.70;99.90;;;;;;6240259;23;20319;-72
2023/10/02 10:03:24;;;;;;;25.30;16.80;;;21.80;99.90;;;;;;6212730;23;20008;-72
2023/10/02 10:06:16;;;;;;;25.40;14.57;;;21.80;99.90;;;;;;6240058;23;20001;-72
2023/10/02 10:14:39;;;;;;;26.40;16.05;;;22.10;99.90;;;;;;6238446;23;20658;-71
2023/10/02 10:17:18;;;;;;;20.48;13.60;;;22.20;99.90;;;;;;6238892;23;20000;-72
2023/10/02 10:20:09;;;;;;;21.85;14.00;;;22.30;99.90;;;;;;6240014;23;20000;-72
2023/10/02 10:22:35;;;;;;;26.33;15.30;;;22.40;99.90;;;;;;6240041;23;20054;-72
2023/10/02 10:27:42;;;;;;;21.85;14.15;;;22.60;99.90;;;;;;6242375;23;20012;-71
2023/10/02 10:35:41;;;;;;;21.38;13.43;;;22.70;99.90;;;;;;6241742;23;20008;-71
2023/10/02 10:38:25;;;;;;;21.73;15.80;;;22.80;99.90;;;;;;6240784;23;20337;-72
2023/10/02 10:40:59;;;;;;;20.08;13.57;;;22.80;99.90;;;;;;6241324;23;20039;-71
2023/10/02 10:43:43;;;;;;;25.25;15.70;;;22.90;99.90;;;;;;6215108;23;20000;-72
2023/10/02 10:46:16;;;;;;;24.45;15.30;;;22.90;99.90;;;;;;6241715;23;20011;-71
2023/10/02 10:48:41;;;;;;;24.45;15.30;;;22.90;99.90;;;;;;6240994;23;20083;-71
2023/10/02 10:51:20;;;;;;;22.55;14.85;;;22.90;99.90;;;;;;6240600;23;20709;-71
2023/10/02 10:53:47;;;;;;;20.58;14.85;;;23.00;99.90;;;;;;6241323;23;20084;-72
2023/10/02 10:56:18;;;;;;;22.83;14.00;;;23.00;99.90;;;;;;6240845;23;20003;-72
2023/10/02 10:58:52;;;;;;;21.92;14.45;;;23.10;99.90;;;;;;6241369;23;20034;-71
2023/10/02 11:01:17;;;;;;;22.75;14.30;;;23.10;99.90;;;;;;6240523;23;20015;-71
2023/10/02 11:03:43;;;;;;;23.08;14.95;;;23.20;99.90;;;;;;6241033;23;20000;-71
2023/10/02 11:06:10;;;;;;;22.63;15.00;;;23.30;99.90;;;;;;6213107;23;20012;-71
2023/10/02 11:08:37;;;;;;;24.15;14.15;;;23.30;99.90;;;;;;6241057;23;20018;-71
2023/10/02 11:11:21;;;;;;;20.67;14.07;;;23.40;99.90;;;;;;6240727;23;20066;-72
2023/10/02 11:13:54;;;;;;;23.95;14.20;;;23.40;99.90;;;;;;6240505;23;20054;-71
2023/10/02 11:16:30;;;;;;;;;;;23.40;99.90;;;;;;6241925;23;20024;-71
2023/10/02 11:19:21;;;;;;;17.83;12.52;;;23.40;99.90;;;;;;6240658;23;19950;-71
2023/10/02 11:22:22;;;;;;;20.13;13.68;;;23.40;99.90;;;;;;6240750;23;20004;-71
2023/10/02 11:24:54;;;;;;;21.27;13.20;;;23.50;99.90;;;;;;6241113;23;20007;-71
2023/10/02 11:27:21;;;;;;;22.08;13.88;;;23.50;99.90;;;;;;6241059;23;20016;-71
2023/10/02 11:30:03;;;;;;;20.70;13.88;;;23.50;99.90;;;;;;6241552;23;20079;-71
2023/10/02 11:32:58;;;;;;;22.17;14.48;;;23.60;99.90;;;;;;6241802;23;20000;-71
2023/10/02 11:35:37;;;;;;;18.45;12.70;;;23.60;99.90;;;;;;6241011;23;20000;-71
2023/10/02 11:38:04;;;;;;;23.50;12.80;;;23.60;99.90;;;;;;6240261;23;20079;-72
2023/10/02 11:40:30;;;;;;;19.17;12.73;;;23.60;99.90;;;;;;6241391;23;20252;-71
2023/10/02 11:42:59;;;;;;;19.50;12.98;;;23.60;99.90;;;;;;6240468;23;20004;-71
2023/10/02 11:45:26;;;;;;;20.02;13.05;;;23.70;99.90;;;;;;6214392;23;20004;-71
2023/10/02 11:47:52;;;;;;;22.60;13.95;;;23.70;99.80;;;;;;6213982;23;20445;-71
2023/10/02 11:50:18;;;;;;;17.75;12.40;;;23.60;99.80;;;;;;6241313;23;20030;-71
2023/10/02 11:52:45;;;;;;;24.27;14.07;;;23.70;99.90;;;;;;6214409;23;20139;-71
2023/10/02 11:55:11;;;;;;;20.08;13.50;;;23.70;99.80;;;;;;6214354;23;20004;-71
2023/10/02 11:57:37;;;;;;;19.55;12.00;;;23.70;99.80;;;;;;6241222;23;20011;-71
2023/10/02 12:00:08;;;;;;;19.63;13.73;;;23.70;99.80;;;;;;6214100;23;20418;-71
2023/10/02 12:02:34;;;;;;;22.48;13.93;;;23.70;99.70;;;;;;6241547;23;20004;-71
2023/10/02 12:05:00;;;;;;;22.45;13.48;;;23.80;99.80;;;;;;6240272;23;20085;-72
2023/10/02 12:07:26;;;;;;;21.30;13.07;;;23.90;99.80;;;;;;6214036;23;20008;-71
2023/10/02 12:09:53;;;;;;;24.85;14.32;;;24.00;99.90;;;;;;6240352;23;20059;-70
2023/10/02 12:12:19;;;;;;;18.23;13.23;;;24.10;99.70;;;;;;6241086;23;20050;-72
2023/10/02 12:14:45;;;;;;;22.25;13.80;;;24.20;99.60;;;;;;6241399;23;20004;-72
2023/10/02 12:17:14;;;;;;;21.63;13.88;;;24.20;99.60;;;;;;6240385;23;20095;-71
2023/10/02 12:19:41;;;;;;;20.33;12.75;;;24.20;99.70;;;;;;6240443;23;20073;-71
2023/10/02 12:22:07;;;;;;;21.58;14.82;;;24.20;99.40;;;;;;6240909;23;20442;-70
2023/10/02 12:24:34;;;;;;;19.67;13.15;;;24.30;99.30;;;;;;6241566;23;19997;-72
2023/10/02 12:27:00;;;;;;;21.88;13.95;;;24.30;99.10;;;;;;6240514;23;20007;-72
2023/10/02 12:29:25;;;;;;;20.15;13.13;;;24.30;99.20;;;;;;6241111;23;20372;-72
2023/10/02 12:31:52;;;;;;;21.33;13.73;;;24.30;99.00;;;;;;6240503;23;20000;-72
2023/10/02 12:34:19;;;;;;;20.80;14.13;;;24.30;98.90;;;;;;6240338;23;20000;-72
2023/10/02 12:36:45;;;;;;;17.90;13.40;;;24.40;99.00;;;;;;6240900;23;19996;-72
2023/10/02 12:39:13;;;;;;;19.30;14.07;;;24.40;99.00;;;;;;6240953;23;20015;-72
2023/10/02 12:41:42;;;;;;;21.15;13.45;;;24.40;99.00;;;;;;6240545;23;20016;-72
2023/10/02 12:44:08;;;;;;;23.80;13.30;;;24.40;99.00;;;;;;6241039;23;20102;-72
2023/10/02 12:46:43;;;;;;;19.75;13.40;;;24.40;99.20;;;;;;6241193;23;20326;-72
2023/10/02 12:49:15;;;;;;;20.30;13.65;;;24.40;99.00;;;;;;6239440;23;20528;-72
2023/10/02 12:51:41;;;;;;;18.60;12.95;;;24.40;99.00;;;;;;6240126;23;20019;-72
2023/10/02 12:54:07;;;;;;;22.15;14.18;;;24.40;99.10;;;;;;6240297;23;20155;-72
2023/10/02 12:56:35;;;;;;;20.58;13.60;;;24.40;99.10;;;;;;6240670;23;20000;-72
2023/10/02 12:59:01;;;;;;;19.20;13.63;;;24.40;99.10;;;;;;6239825;23;20455;-73
2023/10/02 13:01:27;;;;;;;21.00;13.65;;;24.40;99.20;;;;;;6240859;23;20091;-72
2023/10/02 13:03:59;;;;;;;19.77;13.43;;;24.40;99.10;;;;;;6239344;23;20004;-72
2023/10/02 13:06:26;;;;;;;23.25;14.88;;;24.40;98.90;;;;;;6240728;23;20043;-72
2023/10/02 13:08:56;;;;;;;21.50;14.45;;;24.40;98.90;;;;;;6240087;23;20007;-72
2023/10/02 13:11:23;;;;;;;21.13;14.02;;;24.40;99.00;;;;;;6237422;23;20106;-71
2023/10/02 13:13:52;;;;;;;23.23;12.02;;;24.50;99.00;;;;;;6236391;23;20487;-72
2023/10/02 13:16:20;;;;;;;18.90;13.63;;;24.50;99.10;;;;;;6238749;23;20024;-71
2023/10/02 13:18:46;;;;;;;21.88;13.57;;;24.50;99.00;;;;;;6238563;23;20367;-71
2023/10/02 13:21:14;;;;;;;25.48;15.82;;;24.50;98.80;;;;;;6240058;23;20004;-71
2023/10/02 13:23:40;;;;;;;22.35;14.20;;;24.60;98.90;;;;;;6239673;23;20000;-71
2023/10/02 13:26:08;;;;;;;23.55;14.60;;;24.50;98.90;;;;;;6213212;23;20008;-71
2023/10/02 13:28:34;;;;;;;24.10;15.60;;;24.50;99.00;;;;;;6240842;23;20026;-71
2023/10/02 13:31:08;;;;;;;24.77;15.80;;;24.50;99.10;;;;;;6239914;23;20050;-71
2023/10/02 13:33:34;;;;;;;27.05;16.60;;;24.40;99.10;;;;;;6240378;23;20071;-72